createdAt,value
2023-03-26T00:01:50.178Z,108.30
2023-03-26T00:04:59.672Z,101.49
2023-03-26T00:08:05.880Z,98.47
2023-03-26T00:11:17.554Z,85.30
2023-03-26T00:14:30.740Z,62.09
2023-03-26T00:17:37.584Z,84.27
2023-03-26T00:20:46.249Z,91.03
2023-03-26T00:23:53.925Z,71.48
2023-03-26T00:26:59.994Z,79.21
2023-03-26T00:30:08.281Z,103.76
2023-03-26T00:33:17.740Z,89.77
2023-03-26T00:36:29.119Z,85.92
2023-03-26T00:39:41.945Z,66.21
2023-03-26T00:42:48.756Z,53.98
2023-03-26T00:45:58.463Z,57.67
2023-03-26T00:49:05.883Z,61.74
2023-03-26T00:52:14.565Z,65.04
2023-03-26T00:55:21.534Z,70.49
2023-03-26T00:58:27.524Z,71.05
2023-03-26T01:01:36.324Z,72.18
2023-03-26T01:04:43.029Z,65.82
2023-03-26T01:07:52.576Z,66.70
2023-03-26T01:11:07.611Z,90.82
2023-03-26T01:14:21.885Z,116.41
2023-03-26T01:17:34.533Z,123.15
2023-03-26T01:20:54.208Z,110.87
2023-03-26T01:24:09.831Z,127.18
2023-03-26T01:27:35.250Z,125.55
2023-03-26T01:30:55.164Z,126.77
2023-03-26T01:34:17.165Z,107.46
2023-03-26T01:37:44.194Z,87.30
2023-03-26T01:41:12.298Z,91.05
2023-03-26T01:44:35.501Z,104.25
2023-03-26T01:47:46.785Z,97.11
2023-03-26T01:50:56.599Z,92.56
2023-03-26T01:54:07.004Z,79.20
2023-03-26T01:57:37.000Z,80.23
2023-03-26T02:00:57.171Z,87.07
2023-03-26T02:04:19.856Z,78.37
2023-03-26T02:07:38.239Z,71.31
2023-03-26T02:10:49.106Z,60.00
2023-03-26T02:13:59.440Z,60.62
2023-03-26T02:17:06.417Z,74.68
2023-03-26T02:20:19.201Z,82.37
2023-03-26T02:23:30.160Z,88.76
2023-03-26T02:26:47.214Z,101.60
2023-03-26T02:30:05.267Z,98.31
2023-03-26T02:33:15.707Z,95.77
2023-03-26T02:36:27.837Z,89.33
2023-03-26T02:39:38.858Z,71.71
2023-03-26T02:42:53.445Z,59.59
2023-03-26T02:46:03.281Z,52.00
2023-03-26T02:49:32.475Z,58.90
2023-03-26T02:52:41.650Z,74.20
2023-03-26T02:55:47.813Z,100.87
2023-03-26T02:58:54.807Z,110.68
2023-03-26T03:02:03.797Z,110.51
2023-03-26T03:05:14.319Z,68.70
2023-03-26T03:08:21.355Z,38.82
2023-03-26T03:11:46.808Z,39.50
2023-03-26T03:14:53.072Z,39.03
2023-03-26T03:18:02.844Z,50.64
2023-03-26T03:21:11.614Z,62.66
2023-03-26T03:24:18.862Z,67.01
2023-03-26T03:27:28.142Z,59.33
2023-03-26T03:30:43.534Z,61.18
2023-03-26T03:33:59.407Z,65.25
2023-03-26T03:37:08.475Z,63.97
2023-03-26T03:40:23.356Z,60.68
2023-03-26T03:43:30.499Z,59.41
2023-03-26T03:46:54.590Z,59.79
2023-03-26T03:50:04.883Z,64.20
2023-03-26T03:53:16.191Z,63.82
2023-03-26T03:56:27.237Z,57.95
2023-03-26T03:59:58.468Z,45.46
2023-03-26T04:03:09.930Z,44.67
2023-03-26T04:06:20.514Z,43.13
2023-03-26T04:09:31.781Z,48.73
2023-03-26T04:12:42.875Z,51.91
2023-03-26T04:15:54.826Z,59.87
2023-03-26T04:19:02.932Z,72.48
2023-03-26T04:22:12.839Z,74.68
2023-03-26T04:25:33.577Z,89.39
2023-03-26T04:28:54.907Z,89.06
2023-03-26T04:32:09.405Z,102.02
2023-03-26T04:35:20.170Z,129.52
2023-03-26T04:38:44.889Z,169.10
2023-03-26T04:41:53.687Z,178.94
2023-03-26T04:45:03.455Z,164.25
2023-03-26T04:48:14.696Z,160.51
2023-03-26T04:51:27.367Z,153.63
2023-03-26T04:54:39.336Z,150.41
2023-03-26T04:58:03.705Z,142.72
2023-03-26T05:01:32.440Z,124.19
2023-03-26T05:04:39.522Z,95.69
2023-03-26T05:07:49.258Z,67.03
2023-03-26T05:11:00.705Z,52.05
2023-03-26T05:14:13.532Z,53.96
2023-03-26T05:17:24.019Z,53.98
2023-03-26T05:20:36.317Z,62.62
2023-03-26T05:23:45.025Z,65.13
2023-03-26T05:27:01.968Z,66.31
2023-03-26T05:30:10.919Z,63.66
2023-03-26T05:33:24.398Z,53.82
2023-03-26T05:36:40.066Z,52.84
2023-03-26T05:40:11.887Z,45.58
2023-03-26T05:43:28.643Z,41.28
2023-03-26T05:46:47.581Z,47.85
2023-03-26T05:50:00.410Z,41.69
2023-03-26T05:53:16.565Z,40.13
2023-03-26T05:56:44.620Z,36.37
2023-03-26T06:00:15.630Z,38.95
2023-03-26T06:03:24.990Z,38.36
2023-03-26T06:06:55.078Z,36.71
2023-03-26T06:10:01.191Z,34.95
2023-03-26T06:13:09.329Z,39.26
2023-03-26T06:16:27.133Z,74.00
2023-03-26T06:19:54.731Z,63.93
2023-03-26T06:23:13.166Z,44.10
2023-03-26T06:26:40.465Z,52.57
2023-03-26T06:30:02.204Z,58.32
2023-03-26T06:33:26.395Z,52.83
2023-03-26T06:36:32.606Z,66.39
2023-03-26T06:39:39.575Z,60.14
2023-03-26T06:43:10.928Z,66.49
2023-03-26T06:46:37.983Z,67.18
2023-03-26T06:50:05.128Z,64.02
2023-03-26T06:53:15.403Z,57.53
2023-03-26T06:56:41.694Z,55.64
2023-03-26T07:00:14.539Z,40.46
2023-03-26T07:03:42.437Z,43.69
2023-03-26T07:07:11.009Z,42.71
2023-03-26T07:10:36.173Z,42.16
2023-03-26T07:14:08.575Z,49.46
2023-03-26T07:17:31.643Z,55.63
2023-03-26T07:20:53.750Z,72.21
2023-03-26T07:24:11.320Z,113.69
2023-03-26T07:28:01.348Z,142.97
2023-03-26T07:31:42.550Z,207.51
2023-03-26T07:35:37.022Z,128.90
2023-03-26T07:39:31.265Z,129.45
2023-03-26T07:43:11.111Z,93.64
2023-03-26T07:46:57.887Z,69.56
2023-03-26T07:50:32.880Z,60.41
2023-03-26T07:53:52.527Z,61.99
2023-03-26T07:57:55.233Z,93.34
2023-03-26T08:01:31.290Z,116.14
2023-03-26T08:05:20.031Z,117.68
2023-03-26T08:08:50.993Z,79.93
2023-03-26T08:12:31.115Z,57.29
2023-03-26T08:15:59.454Z,70.69
2023-03-26T08:19:29.384Z,118.80
2023-03-26T08:22:43.663Z,119.22
2023-03-26T08:26:07.159Z,78.90
2023-03-26T08:29:27.001Z,105.48
2023-03-26T08:32:39.206Z,104.78
2023-03-26T08:35:55.152Z,99.72
2023-03-26T08:39:02.085Z,106.90
2023-03-26T08:43:08.493Z,72.15
2023-03-26T08:47:14.925Z,50.06
2023-03-26T08:51:14.319Z,58.57
2023-03-26T08:55:20.355Z,51.40
2023-03-26T08:59:17.447Z,52.09
2023-03-26T09:02:59.106Z,57.04
2023-03-26T09:06:56.619Z,66.43
2023-03-26T09:10:48.665Z,37.29
2023-03-26T09:14:48.232Z,35.48
2023-03-26T09:19:07.030Z,67.16
2023-03-26T09:23:15.378Z,44.56
2023-03-26T09:26:29.683Z,48.30
2023-03-26T09:30:48.638Z,78.14
2023-03-26T09:34:15.913Z,46.63
2023-03-26T09:37:36.993Z,34.07
2023-03-26T09:41:21.474Z,32.29
2023-03-26T09:45:15.765Z,33.04
2023-03-26T09:49:18.508Z,29.98
2023-03-26T09:52:59.351Z,37.77
2023-03-26T09:56:38.382Z,34.77
2023-03-26T10:00:28.750Z,27.96
2023-03-26T10:04:09.376Z,29.75
2023-03-26T10:07:45.185Z,32.37
2023-03-26T10:11:03.314Z,31.23
2023-03-26T10:14:27.151Z,27.97
2023-03-26T10:18:26.782Z,33.96
2023-03-26T10:21:50.654Z,31.27
2023-03-26T10:25:41.848Z,32.22
2023-03-26T10:29:24.013Z,37.66
2023-03-26T10:33:04.968Z,41.98
2023-03-26T10:36:35.759Z,36.88
2023-03-26T10:40:10.817Z,29.65
2023-03-26T10:44:05.623Z,24.12
2023-03-26T10:47:54.139Z,28.33
2023-03-26T10:51:36.696Z,26.91
2023-03-26T10:54:59.426Z,27.80
2023-03-26T10:58:26.700Z,26.60
2023-03-26T11:01:53.331Z,20.37
2023-03-26T11:05:38.119Z,20.84
2023-03-26T11:09:08.277Z,19.70
2023-03-26T11:12:29.399Z,18.25
2023-03-26T11:15:50.315Z,20.08
2023-03-26T11:19:06.456Z,20.98
2023-03-26T11:22:33.864Z,19.81
2023-03-26T11:26:06.385Z,20.81
2023-03-26T11:29:46.110Z,19.77
2023-03-26T11:33:00.092Z,29.75
2023-03-26T11:36:15.394Z,24.32
2023-03-26T11:39:44.411Z,28.34
2023-03-26T11:43:00.432Z,28.06
2023-03-26T11:46:15.724Z,24.33
2023-03-26T11:49:26.704Z,22.06
2023-03-26T11:52:32.820Z,34.11
2023-03-26T11:55:52.847Z,24.48
2023-03-26T11:59:21.809Z,20.27
2023-03-26T12:02:52.214Z,21.26
2023-03-26T12:06:04.117Z,28.24
2023-03-26T12:09:25.002Z,37.71
2023-03-26T12:12:42.696Z,27.87
2023-03-26T12:15:49.818Z,26.28
2023-03-26T12:19:11.850Z,24.59
2023-03-26T12:22:36.568Z,20.68
2023-03-26T12:25:43.999Z,51.18
2023-03-26T12:28:54.725Z,64.09
2023-03-26T12:32:09.798Z,41.12
2023-03-26T12:35:22.458Z,46.76
2023-03-26T12:39:16.647Z,47.63
2023-03-26T12:44:46.650Z,42.29
2023-03-26T12:47:26.413Z,54.91
2023-03-26T12:49:31.637Z,56.28
2023-03-26T12:53:19.475Z,57.50
2023-03-26T12:56:40.731Z,69.00
2023-03-26T13:00:09.564Z,63.32
2023-03-26T13:03:43.541Z,59.09
2023-03-26T13:07:19.674Z,36.85
2023-03-26T13:10:51.721Z,78.10
2023-03-26T13:14:28.668Z,86.47
2023-03-26T13:17:49.234Z,61.79
2023-03-26T13:21:17.471Z,39.31
2023-03-26T13:24:47.443Z,39.46
2023-03-26T13:28:27.478Z,39.14
2023-03-26T13:32:11.878Z,42.26
2023-03-26T13:35:37.543Z,29.85
2023-03-26T13:39:15.411Z,32.62
2023-03-26T13:42:41.665Z,36.20
2023-03-26T13:46:06.199Z,27.02
2023-03-26T13:49:18.745Z,45.33
2023-03-26T13:52:35.491Z,51.86
2023-03-26T13:55:53.598Z,42.31
2023-03-26T13:59:08.870Z,41.03
2023-03-26T14:02:27.602Z,43.25
2023-03-26T14:05:42.503Z,32.99
2023-03-26T14:08:59.982Z,42.90
2023-03-26T14:12:39.414Z,35.54
2023-03-26T14:15:56.270Z,39.55
2023-03-26T14:19:36.606Z,34.39
2023-03-26T14:23:05.333Z,110.70
2023-03-26T14:26:42.647Z,151.69
2023-03-26T14:30:28.951Z,253.66
2023-03-26T14:34:08.029Z,56.23
2023-03-26T14:37:57.739Z,89.16
2023-03-26T14:41:27.398Z,149.80
2023-03-26T14:45:26.249Z,105.51
2023-03-26T14:49:32.344Z,59.29
2023-03-26T14:52:52.013Z,86.79
2023-03-26T14:56:42.001Z,116.71
2023-03-26T15:01:04.226Z,88.33
2023-03-26T15:04:52.728Z,104.38
2023-03-26T15:09:07.167Z,48.95
2023-03-26T15:12:43.417Z,90.65
2023-03-26T15:16:45.364Z,79.35
2023-03-26T15:20:48.323Z,80.25
2023-03-26T15:24:40.874Z,197.45
2023-03-26T15:28:29.728Z,191.01
2023-03-26T15:32:33.716Z,117.48
2023-03-26T15:36:37.434Z,116.56
2023-03-26T15:40:32.849Z,142.28
2023-03-26T15:44:25.630Z,210.22
2023-03-26T15:48:02.554Z,95.31
2023-03-26T15:51:49.691Z,156.06
2023-03-26T15:55:17.071Z,273.09
2023-03-26T15:58:41.067Z,66.00
2023-03-26T16:02:07.995Z,73.90
2023-03-26T16:05:43.566Z,65.35
2023-03-26T16:09:10.459Z,121.39
2023-03-26T16:12:38.847Z,89.89
2023-03-26T16:15:46.825Z,87.91
2023-03-26T16:19:52.223Z,116.25
2023-03-26T16:23:04.746Z,124.63
2023-03-26T16:26:28.890Z,106.75
2023-03-26T16:30:13.306Z,145.24
2023-03-26T16:33:35.845Z,120.83
2023-03-26T16:36:50.257Z,155.27
2023-03-26T16:39:59.603Z,168.38
2023-03-26T16:43:48.940Z,114.20
2023-03-26T16:47:35.251Z,143.40
2023-03-26T16:50:58.076Z,149.70
2023-03-26T16:54:25.310Z,124.55
2023-03-26T16:57:41.479Z,95.26
2023-03-26T17:01:00.416Z,90.63
2023-03-26T17:04:20.935Z,94.23
2023-03-26T17:07:40.358Z,148.40
2023-03-26T17:11:03.507Z,118.34
2023-03-26T17:14:31.437Z,146.96
2023-03-26T17:18:15.654Z,133.17
2023-03-26T17:21:46.869Z,116.97
2023-03-26T17:25:08.141Z,103.07
2023-03-26T17:29:00.367Z,115.81
2023-03-26T17:32:15.285Z,123.57
2023-03-26T17:35:43.082Z,123.64
2023-03-26T17:39:07.694Z,110.99
2023-03-26T17:42:28.108Z,108.49
2023-03-26T17:45:40.675Z,142.61
2023-03-26T17:49:03.083Z,166.85
2023-03-26T17:52:25.677Z,148.61
2023-03-26T17:55:41.865Z,119.40
2023-03-26T17:59:11.227Z,96.76
2023-03-26T18:02:42.455Z,146.51
2023-03-26T18:06:12.291Z,113.89
2023-03-26T18:09:51.288Z,136.29
2023-03-26T18:13:41.607Z,188.81
2023-03-26T18:17:06.568Z,136.51
2023-03-26T18:20:36.818Z,182.94
2023-03-26T18:23:52.406Z,126.85
2023-03-26T18:27:04.862Z,125.65
2023-03-26T18:30:26.472Z,125.94
2023-03-26T18:33:46.545Z,103.82
2023-03-26T18:37:18.315Z,116.63
2023-03-26T18:40:35.897Z,133.10
2023-03-26T18:43:48.202Z,134.73
2023-03-26T18:46:58.527Z,138.41
2023-03-26T18:50:06.173Z,147.77
2023-03-26T18:53:22.224Z,143.28
2023-03-26T18:56:36.432Z,157.40
2023-03-26T18:59:47.371Z,142.03
2023-03-26T19:03:08.178Z,103.78
2023-03-26T19:06:21.240Z,113.26
2023-03-26T19:09:32.426Z,118.45
2023-03-26T19:12:41.687Z,89.84
2023-03-26T19:15:52.943Z,109.33
2023-03-26T19:19:14.353Z,94.42
2023-03-26T19:22:26.548Z,125.20
2023-03-26T19:25:41.807Z,137.81
2023-03-26T19:28:54.869Z,104.83
2023-03-26T19:32:07.933Z,96.52
2023-03-26T19:35:26.678Z,92.28
2023-03-26T19:38:45.768Z,102.15
2023-03-26T19:41:55.981Z,93.60
2023-03-26T19:45:18.616Z,89.96
2023-03-26T19:48:59.525Z,70.36
2023-03-26T19:52:18.458Z,64.82
2023-03-26T19:55:30.526Z,68.49
2023-03-26T19:58:36.635Z,78.54
2023-03-26T20:01:44.325Z,99.69
2023-03-26T20:04:51.001Z,94.33
2023-03-26T20:08:19.116Z,87.54
2023-03-26T20:11:33.610Z,96.86
2023-03-26T20:14:40.452Z,101.17
2023-03-26T20:17:50.349Z,110.98
2023-03-26T20:20:57.831Z,125.05
2023-03-26T20:24:16.654Z,141.81
2023-03-26T20:27:28.932Z,143.17
2023-03-26T20:30:37.879Z,117.61
2023-03-26T20:33:45.608Z,128.09
2023-03-26T20:36:55.575Z,125.06
2023-03-26T20:40:12.608Z,138.02
2023-03-26T20:43:22.057Z,148.38
2023-03-26T20:46:31.903Z,157.32
2023-03-26T20:49:38.042Z,160.18
2023-03-26T20:52:46.548Z,173.19
2023-03-26T20:55:55.196Z,214.09
2023-03-26T20:59:11.084Z,261.80
2023-03-26T21:02:18.609Z,244.56
2023-03-26T21:05:32.893Z,213.04
2023-03-26T21:08:40.076Z,222.85
2023-03-26T21:12:11.517Z,256.48
2023-03-26T21:15:23.437Z,252.95
2023-03-26T21:18:34.779Z,250.64
2023-03-26T21:22:00.201Z,207.40
2023-03-26T21:25:38.866Z,179.97
2023-03-26T21:28:54.870Z,166.94
2023-03-26T21:32:03.213Z,181.06
2023-03-26T21:35:11.767Z,171.77
2023-03-26T21:38:23.250Z,183.16
2023-03-26T21:41:41.543Z,165.68
2023-03-26T21:44:52.322Z,155.98
2023-03-26T21:48:17.660Z,182.69
2023-03-26T21:51:43.084Z,282.33
2023-03-26T21:54:50.064Z,146.88
2023-03-26T21:58:31.841Z,141.84
2023-03-26T22:01:54.910Z,115.88
2023-03-26T22:05:15.560Z,140.29
2023-03-26T22:08:32.844Z,134.38
2023-03-26T22:11:39.674Z,131.47
2023-03-26T22:14:46.081Z,123.58
2023-03-26T22:18:04.907Z,113.57
2023-03-26T22:21:11.341Z,105.86
2023-03-26T22:24:18.132Z,101.08
2023-03-26T22:27:24.154Z,94.04
2023-03-26T22:30:31.329Z,99.43
2023-03-26T22:33:41.037Z,107.78
2023-03-26T22:36:47.920Z,96.34
2023-03-26T22:39:53.789Z,92.59
2023-03-26T22:43:00.616Z,88.06
2023-03-26T22:46:11.082Z,88.33
2023-03-26T22:49:21.663Z,82.95
2023-03-26T22:52:27.822Z,95.00
2023-03-26T22:55:34.589Z,97.43
2023-03-26T22:58:41.108Z,102.80
2023-03-26T23:01:48.167Z,102.47
2023-03-26T23:04:56.890Z,92.46
2023-03-26T23:08:03.922Z,91.35
2023-03-26T23:11:16.453Z,92.89
2023-03-26T23:14:23.475Z,99.03
2023-03-26T23:17:29.461Z,104.65
2023-03-26T23:20:40.316Z,105.34
2023-03-26T23:23:46.462Z,99.62
2023-03-26T23:26:53.497Z,103.57
2023-03-26T23:29:59.616Z,112.51
2023-03-26T23:33:06.623Z,115.67
2023-03-26T23:36:18.900Z,116.13
2023-03-26T23:39:26.935Z,125.84
2023-03-26T23:42:34.757Z,125.47
2023-03-26T23:45:41.895Z,107.93
2023-03-26T23:48:52.354Z,116.54
2023-03-26T23:52:02.280Z,133.86
2023-03-26T23:55:09.742Z,137.41
2023-03-26T23:58:17.632Z,142.87
